ロンドン/ヒースロー の空港の天気 - METARとTAF

ロンドン・ヒースロー空港 ( EGLL / LHR ) - イギリス ロンドン
飛行場実況気象(Metar)
観測時間08/22 17:20 BST (08/22 16:20 UTC)
風向・風速西南西 5m/s
視程10km以上
天気現象
全天の8割程度の雲 雲底高度 1340m
気温23℃
湿度53%
気圧1024hPa
METAREGLL 221620Z AUTO 24010KT 9999 BKN044 23/13 Q1024
過去の天気等 Google飛行場航空写真 Wunderground天気予報

過去48時間のMETAR

飛行場予報(TAF)
発表時間: 8/22 11:53 BST (8/22 10:53 UTC)
予報対象時間: 22日13時 BST ~ 23日19時 BST
風向・風速西南西 4m/s
視程10km以上
少しの雲 雲底高度 1220m
23日1時 BST ~ 23日4時 BST に徐々に
視程7000m
23日4時 BST から 確率 30% で
視程2000m
天気現象もや
全天の8割程度の雲 雲底高度 60m
23日8時 BST ~ 23日11時 BST に徐々に
視程10km以上
TAF EGLL 221053Z 2212/2318 24008KT 9999 FEW040
BECMG 2300/2303 7000
PROB30 2303/2307 2000 BR BKN002
BECMG 2307/2310 9999